Time;durP1;ratioP1;P1;durP2;ratioP2;P2;SDS_P1;SDS_P2;PMS_P1;PMS_P2;Temp;Humidity;BMP_temperature;BMP_pressure;BME280_temperature;BME280_humidity;BME280_pressure;Samples;Min_cycle;Max_cycle;Signal;HPM_P1;HPM_P2
2022/06/15 00:02:06;;;;;;;8.77;4.85;;;;;;;13.33;100.00;102020.59;5034867;28;20040;-68
2022/06/15 00:04:33;;;;;;;9.60;5.28;;;;;;;13.32;100.00;102022.38;5033347;28;20026;-67
2022/06/15 00:06:59;;;;;;;9.27;4.65;;;;;;;13.32;100.00;102013.53;5035004;28;20036;-68
2022/06/15 00:09:24;;;;;;;7.72;4.90;;;;;;;13.27;100.00;102005.72;5034846;28;20417;-68
2022/06/15 00:11:50;;;;;;;14.02;5.57;;;;;;;13.28;100.00;102010.09;5034945;28;20112;-68
2022/06/15 00:14:21;;;;;;;10.95;5.60;;;;;;;13.31;100.00;102007.31;5034597;28;20033;-68
2022/06/15 00:16:47;;;;;;;9.73;5.18;;;;;;;13.30;100.00;102005.63;5034305;28;20033;-68
2022/06/15 00:19:13;;;;;;;10.82;6.03;;;;;;;13.31;100.00;102006.47;5034448;28;20131;-68
2022/06/15 00:21:39;;;;;;;12.40;5.38;;;;;;;13.30;100.00;102012.69;5033485;28;20030;-66
2022/06/15 00:24:05;;;;;;;12.02;5.50;;;;;;;13.32;100.00;102010.88;5034530;28;20026;-67
2022/06/15 00:26:30;;;;;;;8.98;5.25;;;;;;;13.29;100.00;102014.50;5034145;28;20115;-67
2022/06/15 00:28:56;;;;;;;9.38;5.03;;;;;;;13.22;100.00;102008.56;5033141;28;20072;-67
2022/06/15 00:31:21;;;;;;;9.73;4.93;;;;;;;13.19;100.00;102006.00;5033911;28;20033;-67
2022/06/15 00:33:47;;;;;;;8.43;5.00;;;;;;;13.16;100.00;102008.78;5033854;28;20026;-68
2022/06/15 00:36:15;;;;;;;9.95;5.15;;;;;;;13.10;100.00;101999.22;5030096;28;20029;-68
2022/06/15 00:38:45;;;;;;;7.57;5.03;;;;;;;13.06;100.00;101997.59;5014516;28;20026;-69
2022/06/15 00:41:17;;;;;;;14.02;6.30;;;;;;;13.05;100.00;102005.66;5032148;28;20033;-69
2022/06/15 00:43:47;;;;;;;10.20;5.22;;;;;;;13.04;100.00;102006.56;5032691;28;20046;-68
2022/06/15 00:46:37;;;;;;;13.32;5.82;;;;;;;13.02;100.00;101997.75;5048080;28;20492;-69
2022/06/15 00:49:14;;;;;;;10.75;5.55;;;;;;;12.99;100.00;102004.06;5034264;28;20029;-68
2022/06/15 00:51:40;;;;;;;8.05;5.40;;;;;;;12.99;100.00;102013.84;5033760;28;20481;-68
2022/06/15 00:54:07;;;;;;;10.73;5.68;;;;;;;12.98;100.00;101996.16;5032576;28;20033;-69
2022/06/15 00:56:35;;;;;;;8.88;5.50;;;;;;;12.96;100.00;101996.22;5033585;28;20108;-68
2022/06/15 00:59:06;;;;;;;9.65;5.50;;;;;;;12.92;100.00;101992.78;5034140;28;20060;-68
2022/06/15 01:01:31;;;;;;;9.07;5.57;;;;;;;12.91;100.00;101998.16;5032225;28;20499;-67
2022/06/15 01:04:01;;;;;;;10.02;5.60;;;;;;;12.89;100.00;101986.72;5033975;28;20025;-67
2022/06/15 01:06:51;;;;;;;12.63;5.65;;;;;;;12.87;100.00;101988.56;5032785;28;20053;-67
2022/06/15 01:09:21;;;;;;;10.18;5.50;;;;;;;12.83;100.00;101976.31;5033636;28;20037;-67
2022/06/15 01:12:09;;;;;;;8.93;5.85;;;;;;;12.83;100.00;101976.31;5033466;28;20021;-67
2022/06/15 01:15:01;;;;;;;11.43;6.43;;;;;;;12.83;100.00;101976.31;5032352;28;20026;-68
2022/06/15 01:17:39;;;;;;;11.23;5.97;;;;;;;12.84;100.00;101983.34;5033535;28;20036;-67
2022/06/15 01:20:32;;;;;;;13.63;6.38;;;;;;;12.81;100.00;101984.34;5032185;28;20057;-67
2022/06/15 01:23:28;;;;;;;9.98;5.80;;;;;;;12.79;100.00;101986.19;5033292;28;20117;-67
2022/06/15 01:26:02;;;;;;;9.95;6.10;;;;;;;12.77;100.00;101974.72;5033463;28;20025;-67
2022/06/15 01:28:45;;;;;;;11.15;6.25;;;;;;;12.75;100.00;101985.44;5033180;28;20033;-67
2022/06/15 01:31:31;;;;;;;11.77;6.50;;;;;;;12.71;100.00;101974.94;5032685;28;20157;-67
2022/06/15 01:34:47;;;;;;;10.57;6.00;;;;;;;12.69;100.00;101982.13;5031638;28;20087;-68
2022/06/15 01:37:27;;;;;;;10.02;6.28;;;;;;;12.67;100.00;101981.31;5031907;28;20046;-67
2022/06/15 01:40:03;;;;;;;12.63;6.72;;;;;;;12.63;100.00;101972.56;5031476;28;20443;-67
2022/06/15 01:42:39;;;;;;;10.32;6.20;;;;;;;12.58;100.00;101978.06;5032468;28;20427;-68
2022/06/15 01:45:09;;;;;;;10.40;6.32;;;;;;;12.58;100.00;101971.84;5032857;28;20021;-67
2022/06/15 01:47:37;;;;;;;12.52;6.60;;;;;;;12.56;100.00;101977.25;5033091;28;20060;-68
2022/06/15 01:50:24;;;;;;;12.85;6.05;;;;;;;12.53;100.00;101964.06;5032897;28;20481;-68
2022/06/15 01:53:17;;;;;;;12.38;6.65;;;;;;;12.52;100.00;101962.34;5031295;28;20029;-69
2022/06/15 01:55:50;;;;;;;10.52;6.20;;;;;;;12.48;100.00;101970.44;5026616;28;20034;-67
2022/06/15 01:58:18;;;;;;;13.05;6.63;;;;;;;12.45;100.00;101966.13;5026355;28;20111;-67
2022/06/15 02:00:53;;;;;;;11.13;6.68;;;;;;;12.40;100.00;101960.94;5032576;28;20029;-67
2022/06/15 02:03:42;;;;;;;8.98;6.50;;;;;;;12.38;100.00;101960.16;5031232;28;20045;-68
2022/06/15 02:06:14;;;;;;;10.85;6.93;;;;;;;12.35;100.00;101954.94;5031736;28;20355;-67
2022/06/15 02:08:59;;;;;;;;;;;;;;;12.35;100.00;101952.28;5033451;28;20017;-67
2022/06/15 02:11:30;;;;;;;11.90;6.57;;;;;;;12.35;100.00;101952.28;5032140;28;19938;-67
2022/06/15 02:14:08;;;;;;;10.15;6.22;;;;;;;12.32;100.00;101957.69;5031051;28;20112;-68
2022/06/15 02:16:35;;;;;;;12.05;6.72;;;;;;;12.29;100.00;101955.16;5012625;28;20531;-67
2022/06/15 02:19:04;;;;;;;12.60;6.68;;;;;;;12.26;100.00;101952.59;5012928;28;20117;-67
2022/06/15 02:21:30;;;;;;;11.20;6.90;;;;;;;12.25;100.00;101956.16;5030314;28;20036;-68
2022/06/15 02:24:00;;;;;;;12.02;6.55;;;;;;;12.23;100.00;101948.25;5014551;28;20037;-68
2022/06/15 02:26:31;;;;;;;12.73;6.95;;;;;;;12.23;100.00;101947.41;5030848;28;20021;-67
2022/06/15 02:29:01;;;;;;;13.82;7.05;;;;;;;12.23;100.00;101950.91;5032569;28;20032;-67
2022/06/15 02:31:27;;;;;;;9.65;6.00;;;;;;;12.21;100.00;101943.91;5032168;28;20604;-68
2022/06/15 02:33:56;;;;;;;13.93;6.70;;;;;;;12.17;100.00;101947.59;5011258;28;20029;-68
2022/06/15 02:36:23;;;;;;;11.73;6.88;;;;;;;12.13;100.00;101941.53;5024427;28;20117;-68
2022/06/15 02:38:51;;;;;;;12.18;7.40;;;;;;;12.11;100.00;101940.69;5032172;28;20037;-67
2022/06/15 02:41:19;;;;;;;11.98;7.20;;;;;;;12.08;100.00;101932.84;5031925;28;20038;-67
2022/06/15 02:43:49;;;;;;;14.00;6.65;;;;;;;12.07;100.00;101947.91;5031970;28;20066;-68
2022/06/15 02:46:17;;;;;;;10.38;6.75;;;;;;;12.05;100.00;101943.59;5031647;28;20091;-68
2022/06/15 02:48:43;;;;;;;10.93;7.03;;;;;;;12.02;100.00;101944.56;5032015;28;20079;-68
2022/06/15 02:51:24;;;;;;;13.20;7.03;;;;;;;11.98;100.00;101940.25;5031663;28;20040;-68
2022/06/15 02:53:53;;;;;;;10.77;6.60;;;;;;;11.95;100.00;101935.91;5031713;28;20386;-68
2022/06/15 02:56:20;;;;;;;12.00;6.40;;;;;;;11.91;100.00;101933.38;5029969;28;20288;-68
2022/06/15 02:58:48;;;;;;;15.27;7.07;;;;;;;11.87;100.00;101935.25;5031772;28;20036;-67
2022/06/15 03:01:15;;;;;;;10.45;6.55;;;;;;;11.87;100.00;101937.91;5031455;28;20041;-67
2022/06/15 03:03:41;;;;;;;11.77;6.93;;;;;;;11.85;100.00;101945.06;5031424;28;20498;-67
2022/06/15 03:06:16;;;;;;;13.77;7.07;;;;;;;11.83;100.00;101938.06;5031589;28;20060;-67
2022/06/15 03:08:42;;;;;;;12.18;7.07;;;;;;;11.82;100.00;101929.25;5031005;28;20063;-69
2022/06/15 03:11:07;;;;;;;10.10;6.85;;;;;;;11.81;100.00;101932.81;5031868;28;20029;-66
2022/06/15 03:13:33;;;;;;;13.02;7.45;;;;;;;11.80;100.00;101937.25;5031432;28;20034;-67
2022/06/15 03:16:00;;;;;;;10.60;6.57;;;;;;;11.79;100.00;101929.31;5031673;28;20436;-68
2022/06/15 03:18:27;;;;;;;13.25;7.20;;;;;;;11.76;100.00;101937.41;5031491;28;20095;-67
2022/06/15 03:20:59;;;;;;;10.57;7.40;;;;;;;11.75;100.00;101928.56;5031767;28;20063;-67
2022/06/15 03:23:25;;;;;;;14.27;6.68;;;;;;;11.75;100.00;101928.56;5031321;28;20116;-68
2022/06/15 03:25:54;;;;;;;12.98;6.65;;;;;;;11.75;100.00;101933.00;5031400;28;20112;-67
2022/06/15 03:28:20;;;;;;;14.65;7.70;;;;;;;11.76;100.00;101940.03;5031360;28;20025;-67
2022/06/15 03:30:45;;;;;;;10.70;6.68;;;;;;;11.79;100.00;101938.16;5030433;28;20112;-68
2022/06/15 03:33:10;;;;;;;11.85;6.90;;;;;;;11.81;100.00;101930.16;5029957;28;20080;-68
2022/06/15 03:35:36;;;;;;;10.25;6.80;;;;;;;11.82;100.00;101941.66;5031331;28;20385;-67
2022/06/15 03:38:03;;;;;;;9.30;5.90;;;;;;;11.81;100.00;101943.41;5014056;28;20493;-68
2022/06/15 03:40:29;;;;;;;9.90;6.57;;;;;;;11.80;100.00;101939.91;5031157;28;20021;-68
2022/06/15 03:42:55;;;;;;;13.70;6.57;;;;;;;11.82;100.00;101947.81;5030007;28;20061;-66
2022/06/15 03:45:20;;;;;;;10.07;6.57;;;;;;;11.82;100.00;101946.97;5031157;28;20029;-67
2022/06/15 03:47:45;;;;;;;11.40;6.32;;;;;;;11.80;100.00;101947.00;5030284;28;20021;-67
2022/06/15 03:50:11;;;;;;;11.38;6.50;;;;;;;11.81;100.00;101951.38;5028015;28;20018;-67
2022/06/15 03:52:36;;;;;;;10.02;6.82;;;;;;;11.80;100.00;101950.53;5031404;28;20480;-68
2022/06/15 03:55:02;;;;;;;14.52;6.43;;;;;;;11.82;100.00;101952.28;5030919;28;20108;-67
2022/06/15 03:57:28;;;;;;;13.98;6.97;;;;;;;11.84;100.00;101948.66;5031320;28;20029;-67
2022/06/15 03:59:53;;;;;;;9.90;6.85;;;;;;;11.86;100.00;101949.44;5029602;28;20075;-68
2022/06/15 04:02:18;;;;;;;12.48;6.40;;;;;;;11.88;100.00;101952.94;5031217;28;20029;-66
2022/06/15 04:04:44;;;;;;;12.65;6.93;;;;;;;11.91;100.00;101936.03;5030912;28;20034;-67
2022/06/15 04:09:54;;;;;;;12.80;6.60;;;;;;;12.00;100.00;101940.22;5031221;28;20036;-67
2022/06/15 04:12:19;;;;;;;11.85;7.00;;;;;;;12.04;100.00;101937.38;5013499;28;20117;-67
2022/06/15 04:14:45;;;;;;;11.43;6.95;;;;;;;12.12;100.00;101947.75;5030688;28;20121;-67
2022/06/15 04:17:11;;;;;;;9.88;6.57;;;;;;;12.17;100.00;101948.47;5030939;28;20534;-67
2022/06/15 04:19:36;;;;;;;11.40;6.93;;;;;;;12.23;100.00;101942.09;5031146;28;20033;-67
2022/06/15 04:22:02;;;;;;;12.40;6.90;;;;;;;12.29;100.00;101945.41;5034603;28;20491;-68
2022/06/15 04:24:29;;;;;;;10.85;6.43;;;;;;;12.34;100.00;101939.03;5032911;28;20764;-68
2022/06/15 04:26:55;;;;;;;15.60;6.82;;;;;;;12.39;100.00;101939.75;5034165;28;20079;-68
2022/06/15 04:29:21;;;;;;;12.95;6.45;;;;;;;12.44;100.00;101946.66;5034583;28;20029;-68
2022/06/15 04:31:47;;;;;;;10.60;6.50;;;;;;;12.52;100.00;101948.16;5033061;28;20535;-68
2022/06/15 04:34:13;;;;;;;11.77;6.85;;;;;;;12.56;100.00;101944.50;5033151;28;20128;-67
2022/06/15 04:36:41;;;;;;;10.50;6.20;;;;;;;12.61;100.00;101942.53;5033724;28;20517;-68
2022/06/15 04:39:10;;;;;;;11.48;6.32;;;;;;;12.66;100.00;101947.66;5034370;28;20025;-67
2022/06/15 04:41:37;;;;;;;9.02;5.78;;;;;;;12.73;100.00;101946.53;5032761;28;20039;-67
2022/06/15 04:44:05;;;;;;;10.43;6.43;;;;;;;12.78;100.00;101947.25;5031729;28;20057;-68
2022/06/15 04:46:30;;;;;;;9.40;5.85;;;;;;;12.83;100.00;101950.59;5033774;28;20060;-69
2022/06/15 04:48:56;;;;;;;9.80;6.03;;;;;;;12.87;100.00;101943.38;5032928;28;20060;-69
2022/06/15 04:51:24;;;;;;;10.55;5.40;;;;;;;12.94;100.00;101944.88;5034024;28;20355;-68
2022/06/15 04:53:52;;;;;;;10.23;5.60;;;;;;;13.04;100.00;101942.75;5030407;28;20021;-68
2022/06/15 04:56:18;;;;;;;9.25;6.13;;;;;;;13.14;100.00;101949.44;5033162;28;20037;-69
2022/06/15 04:58:43;;;;;;;9.75;5.63;;;;;;;13.21;100.00;101944.75;5031705;28;20029;-68
2022/06/15 05:01:10;;;;;;;11.82;6.35;;;;;;;13.26;100.00;101945.44;5031680;28;20036;-68
2022/06/15 05:03:37;;;;;;;9.00;5.65;;;;;;;13.26;100.00;101948.09;5033163;28;20033;-68
2022/06/15 05:06:36;;;;;;;10.02;5.60;;;;;;;13.26;100.00;101950.75;5033550;28;20032;-68
2022/06/15 05:09:07;;;;;;;12.15;5.90;;;;;;;13.32;100.00;101955.84;5032532;28;20029;-68
2022/06/15 05:11:33;;;;;;;9.95;5.57;;;;;;;13.31;100.00;101948.78;5032443;28;20037;-68
2022/06/15 05:13:59;;;;;;;10.00;5.90;;;;;;;13.31;100.00;101946.13;5029988;28;20033;-68
2022/06/15 05:16:25;;;;;;;10.20;5.85;;;;;;;13.39;100.00;101953.88;5033298;28;20483;-68
2022/06/15 05:18:51;;;;;;;11.60;5.30;;;;;;;13.40;100.00;101959.13;5032114;28;20108;-68
2022/06/15 05:21:17;;;;;;;10.48;5.82;;;;;;;13.45;100.00;101940.31;5033417;28;20115;-68
2022/06/15 05:23:42;;;;;;;11.13;6.00;;;;;;;13.48;100.00;101945.53;5034273;28;20037;-68
2022/06/15 05:26:08;;;;;;;10.57;5.38;;;;;;;13.55;100.00;101949.66;5014404;28;20025;-69
2022/06/15 05:28:33;;;;;;;14.65;5.90;;;;;;;13.61;100.00;101943.25;5033067;28;20030;-69
2022/06/15 05:31:08;;;;;;;10.02;5.20;;;;;;;13.69;100.00;101940.28;5032970;28;20018;-67
2022/06/15 05:33:34;;;;;;;11.48;5.22;;;;;;;13.75;100.00;101951.53;5031466;28;20108;-67
2022/06/15 05:36:06;;;;;;;10.43;5.60;;;;;;;13.80;100.00;101943.38;5032043;28;20132;-67
2022/06/15 05:38:31;;;;;;;12.35;5.60;;;;;;;13.85;100.00;101943.16;5032699;28;20056;-67
2022/06/15 05:40:57;;;;;;;10.25;5.05;;;;;;;13.92;100.00;101945.50;5033218;28;20030;-66
2022/06/15 05:43:22;;;;;;;10.95;5.88;;;;;;;14.02;100.00;101951.34;4998574;28;20057;-67
2022/06/15 05:45:48;;;;;;;14.27;5.82;;;;;;;14.07;100.00;101951.16;5031951;28;20116;-69
2022/06/15 05:48:13;;;;;;;9.20;5.43;;;;;;;14.15;100.00;101961.50;5032329;28;20041;-68
2022/06/15 05:50:38;;;;;;;8.65;5.10;;;;;;;14.20;100.00;101955.03;5032685;28;20044;-68
2022/06/15 05:53:04;;;;;;;12.77;5.45;;;;;;;14.29;100.00;101956.44;5032822;28;20029;-67
2022/06/15 05:55:29;;;;;;;11.90;5.57;;;;;;;14.38;100.00;101956.03;5032340;28;20053;-68
2022/06/15 05:57:54;;;;;;;12.07;5.25;;;;;;;14.44;100.00;101962.91;5032256;28;20036;-68
2022/06/15 06:00:21;;;;;;;6.55;5.15;;;;;;;14.52;100.00;101949.25;5031547;28;20025;-68
2022/06/15 06:02:46;;;;;;;8.25;5.20;;;;;;;14.61;100.00;101955.97;5031983;28;20037;-67
2022/06/15 06:05:11;;;;;;;10.80;4.90;;;;;;;14.66;100.00;101964.69;5031015;28;20040;-68
2022/06/15 06:07:37;;;;;;;8.02;4.90;;;;;;;14.76;100.00;101960.66;5030746;28;20037;-68
2022/06/15 06:10:03;;;;;;;9.20;4.95;;;;;;;14.83;100.00;101966.59;5030931;28;20354;-68
2022/06/15 06:12:29;;;;;;;9.05;4.80;;;;;;;14.89;99.99;101961.84;5029957;28;20041;-68
2022/06/15 06:14:54;;;;;;;9.40;4.93;;;;;;;15.00;99.48;101960.47;5031975;28;20075;-67
2022/06/15 06:17:20;;;;;;;10.88;5.28;;;;;;;15.00;99.41;101958.69;5031046;28;20026;-68
2022/06/15 06:19:46;;;;;;;9.77;5.22;;;;;;;15.04;99.04;101959.44;5030738;28;20029;-68
2022/06/15 06:22:11;;;;;;;11.65;5.25;;;;;;;15.11;99.17;101950.19;5029794;28;20095;-68
2022/06/15 06:24:36;;;;;;;13.13;5.43;;;;;;;15.19;98.08;101956.03;5031783;28;20389;-69
2022/06/15 06:27:05;;;;;;;14.98;6.70;;;;;;;15.28;97.54;101956.53;5030215;28;20025;-69
2022/06/15 06:29:30;;;;;;;10.68;4.80;;;;;;;15.36;97.73;101955.25;5031851;28;20033;-69
2022/06/15 06:31:58;;;;;;;9.43;4.60;;;;;;;15.45;98.24;101967.28;5031414;28;20037;-69
2022/06/15 06:34:23;;;;;;;8.93;4.82;;;;;;;15.51;97.72;101955.44;5031981;28;20033;-69
2022/06/15 06:36:49;;;;;;;9.68;4.90;;;;;;;15.59;97.07;101963.97;5029701;28;20027;-69
2022/06/15 06:39:25;;;;;;;8.45;4.75;;;;;;;15.68;97.45;101962.66;5030259;28;20059;-69
2022/06/15 06:41:51;;;;;;;8.93;4.70;;;;;;;15.79;97.11;101962.13;5031000;28;20112;-66
2022/06/15 06:44:16;;;;;;;15.30;5.10;;;;;;;15.92;96.64;101963.31;5026864;28;20145;-67
2022/06/15 06:46:45;;;;;;;14.13;5.10;;;;;;;15.99;96.05;101966.53;5045763;28;20473;-67
2022/06/15 06:49:11;;;;;;;9.20;4.65;;;;;;;16.03;93.79;101971.63;5033172;28;20112;-67
2022/06/15 06:51:38;;;;;;;10.30;5.15;;;;;;;16.13;94.07;101972.03;5032850;28;20481;-68
2022/06/15 06:54:05;;;;;;;9.75;4.30;;;;;;;16.21;93.94;101972.53;5037839;28;20029;-68
2022/06/15 06:56:31;;;;;;;7.38;4.35;;;;;;;16.28;95.77;101973.06;5030094;28;20088;-68
2022/06/15 06:58:56;;;;;;;9.45;5.18;;;;;;;16.38;95.25;101970.78;5026163;28;20135;-68
2022/06/15 07:01:22;;;;;;;13.65;6.38;;;;;;;16.47;93.95;101972.13;5030837;28;20192;-68
2022/06/15 07:03:47;;;;;;;9.82;5.53;;;;;;;16.54;93.19;101977.06;5014544;28;20021;-68
2022/06/15 07:06:13;;;;;;;9.13;4.85;;;;;;;16.66;91.16;101978.25;5028972;28;21912;-67
2022/06/15 07:08:39;;;;;;;9.90;4.70;;;;;;;16.76;90.07;101983.97;5029210;28;20116;-67
2022/06/15 07:11:16;;;;;;;11.13;4.95;;;;;;;16.83;89.79;101974.69;5031227;28;20071;-67
2022/06/15 07:13:42;;;;;;;8.27;4.95;;;;;;;16.94;89.95;101979.47;5025057;28;20120;-67
2022/06/15 07:16:10;;;;;;;11.88;4.70;;;;;;;17.01;89.69;101983.56;5030162;28;20208;-67
2022/06/15 07:18:36;;;;;;;7.95;4.68;;;;;;;17.11;87.15;101977.69;5030576;28;20025;-67
2022/06/15 07:21:12;;;;;;;9.65;4.53;;;;;;;17.20;87.42;101988.78;5045148;28;20108;-67
2022/06/15 07:23:40;;;;;;;7.57;4.35;;;;;;;17.29;86.74;101987.41;5030755;28;20453;-66
2022/06/15 07:26:08;;;;;;;9.07;4.03;;;;;;;17.39;86.56;101994.94;5028733;28;20108;-67
2022/06/15 07:28:34;;;;;;;11.43;4.40;;;;;;;17.44;84.63;101990.19;5030515;28;20091;-67
2022/06/15 07:30:59;;;;;;;7.82;4.15;;;;;;;17.55;83.09;101986.94;5030172;28;20034;-67
2022/06/15 07:33:25;;;;;;;10.10;4.05;;;;;;;17.67;83.69;101989.78;5029842;28;20056;-67
2022/06/15 07:35:51;;;;;;;8.27;3.80;;;;;;;17.84;84.21;101990.63;5030378;28;20029;-67
2022/06/15 07:38:16;;;;;;;8.65;3.55;;;;;;;17.99;81.71;101995.16;5010555;28;20037;-68
2022/06/15 07:40:42;;;;;;;7.45;3.40;;;;;;;18.05;79.42;101988.53;5029384;28;20040;-67
2022/06/15 07:43:07;;;;;;;10.45;3.90;;;;;;;18.12;79.65;101991.72;5029756;28;20121;-69
2022/06/15 07:45:33;;;;;;;9.88;3.50;;;;;;;18.19;80.44;101998.47;5025695;28;20028;-68
2022/06/15 07:50:42;;;;;;;7.28;3.47;;;;;;;18.39;78.98;101985.69;5031172;28;20393;-68
2022/06/15 07:53:12;;;;;;;10.73;3.28;;;;;;;18.43;75.36;101995.31;5031837;28;20024;-69
2022/06/15 07:55:40;;;;;;;11.35;3.38;;;;;;;18.48;75.75;101991.38;5044687;28;20036;-68
2022/06/15 07:58:06;;;;;;;6.57;2.60;;;;;;;18.56;75.51;101992.75;5031957;28;20021;-67
2022/06/15 08:00:33;;;;;;;11.45;3.00;;;;;;;18.64;75.78;101991.31;5033923;28;20026;-67
2022/06/15 08:03:01;;;;;;;7.03;3.22;;;;;;;18.79;71.71;101988.66;5034751;28;20374;-67
2022/06/15 08:05:29;;;;;;;10.70;3.50;;;;;;;18.88;71.31;101993.44;5034564;28;20017;-67
2022/06/15 08:07:55;;;;;;;6.75;2.78;;;;;;;18.86;73.21;101992.66;5033835;28;20053;-68
2022/06/15 08:10:24;;;;;;;6.93;2.80;;;;;;;18.93;70.68;101999.44;5038450;28;20021;-68
2022/06/15 08:12:50;;;;;;;7.35;2.80;;;;;;;19.05;72.21;101991.56;5043480;28;20021;-68
2022/06/15 08:15:16;;;;;;;8.90;3.30;;;;;;;19.18;71.93;101995.19;5033848;28;20455;-68
2022/06/15 08:17:49;;;;;;;7.70;3.22;;;;;;;19.22;69.61;101993.19;5034159;28;20100;-68
2022/06/15 08:20:29;;;;;;;9.88;3.00;;;;;;;19.27;70.74;101991.06;5032811;28;20039;-68
2022/06/15 08:22:58;;;;;;;7.40;2.63;;;;;;;19.42;70.28;101986.56;5033775;28;20022;-68
2022/06/15 08:25:36;;;;;;;6.70;2.72;;;;;;;19.58;68.09;101989.97;5032888;28;20112;-68
2022/06/15 08:28:03;;;;;;;7.47;2.53;;;;;;;19.68;67.63;101987.56;5033884;28;20025;-68
2022/06/15 08:30:28;;;;;;;6.78;2.50;;;;;;;19.77;65.07;101992.31;5033782;28;20383;-68
2022/06/15 08:32:54;;;;;;;8.10;2.70;;;;;;;19.82;62.85;101992.03;5032868;28;20477;-68
2022/06/15 08:35:19;;;;;;;7.47;2.70;;;;;;;20.42;57.41;101996.13;5032419;28;20442;-68
2022/06/15 08:37:45;;;;;;;6.72;2.40;;;;;;;20.74;56.47;101998.44;5038606;28;20502;-68
2022/06/15 08:40:12;;;;;;;5.95;2.33;;;;;;;22.00;54.26;101984.91;5040536;28;20033;-68
2022/06/15 08:42:46;;;;;;;7.28;2.83;;;;;;;23.62;45.31;101989.44;5041842;28;20032;-66
2022/06/15 08:45:12;;;;;;;6.10;2.42;;;;;;;24.80;43.31;101986.75;5039403;28;20107;-66
2022/06/15 08:47:43;;;;;;;6.65;2.60;;;;;;;26.02;38.62;101991.22;5042695;28;20135;-67
2022/06/15 08:50:34;;;;;;;8.18;2.58;;;;;;;26.94;35.92;101989.00;5039009;28;20167;-67
2022/06/15 08:53:09;;;;;;;;;;;;;;;27.09;36.44;101994.81;5033508;28;20075;-67
2022/06/15 08:55:42;;;;;;;6.97;2.72;;;;;;;27.24;34.55;101987.00;5042743;28;20381;-67
2022/06/15 08:58:43;;;;;;;5.10;2.45;;;;;;;26.94;35.29;101991.72;5045801;28;20499;-68
2022/06/15 09:01:41;;;;;;;5.03;2.15;;;;;;;27.44;33.19;101979.63;5039043;28;20088;-68
2022/06/15 09:04:12;;;;;;;6.97;2.30;;;;;;;27.19;32.80;101976.59;5025182;28;20033;-68
2022/06/15 09:07:12;;;;;;;7.75;2.45;;;;;;;27.22;33.86;101978.16;5030943;28;20028;-68
2022/06/15 09:09:55;;;;;;;5.28;2.33;;;;;;;27.52;31.76;101987.88;5034195;28;20452;-69
2022/06/15 09:12:58;;;;;;;6.97;2.47;;;;;;;27.73;32.41;101989.47;5046006;28;20036;-68
2022/06/15 09:16:03;;;;;;;6.38;2.78;;;;;;;27.69;32.76;101988.06;5048232;28;20439;-67
2022/06/15 09:18:34;;;;;;;8.95;2.63;;;;;;;27.64;31.87;101974.91;5047495;28;20044;-68
2022/06/15 09:21:11;;;;;;;6.60;2.90;;;;;;;27.42;32.35;101981.66;5039580;28;20035;-67
2022/06/15 09:23:53;;;;;;;8.55;2.50;;;;;;;27.58;32.42;101981.81;5044301;28;20051;-67
2022/06/15 09:26:32;;;;;;;6.68;2.80;;;;;;;27.04;32.32;101980.81;5044495;28;20013;-67
2022/06/15 09:29:04;;;;;;;8.43;2.50;;;;;;;27.20;33.29;101983.75;5045450;28;20025;-68
2022/06/15 09:31:44;;;;;;;8.65;2.78;;;;;;;27.63;32.49;101967.75;5041509;28;20039;-69
2022/06/15 09:34:15;;;;;;;4.25;2.22;;;;;;;28.05;32.37;101974.50;5030821;28;20017;-68
2022/06/15 09:36:47;;;;;;;;;;;;;;;28.09;32.38;101974.00;5019804;28;20025;-68
2022/06/15 09:39:13;;;;;;;6.68;2.30;;;;;;;28.55;31.97;101973.00;5027296;28;20277;-67
2022/06/15 09:42:00;;;;;;;10.27;2.97;;;;;;;28.09;30.65;101975.88;5040661;28;20033;-67
2022/06/15 09:44:40;;;;;;;9.25;2.70;;;;;;;28.04;30.57;101983.66;5034429;28;20187;-68
2022/06/15 09:47:25;;;;;;;7.05;2.50;;;;;;;27.38;33.31;101983.78;5020309;28;20029;-68
2022/06/15 09:50:02;;;;;;;5.85;2.63;;;;;;;27.99;31.13;101978.66;5032396;28;20033;-68
2022/06/15 09:52:57;;;;;;;5.55;2.25;;;;;;;28.20;31.68;101982.94;5048507;28;20053;-68
2022/06/15 09:55:40;;;;;;;6.22;2.60;;;;;;;28.18;30.43;101983.09;5033892;28;20025;-67
2022/06/15 09:58:08;;;;;;;6.07;2.60;;;;;;;27.98;32.77;101984.25;5032968;28;20052;-67
2022/06/15 10:00:36;;;;;;;8.20;2.95;;;;;;;28.44;31.65;101987.72;5038729;28;20056;-68
2022/06/15 10:03:11;;;;;;;5.20;2.70;;;;;;;29.03;30.40;101990.69;5031682;28;20020;-68
2022/06/15 10:05:39;;;;;;;7.47;2.85;;;;;;;28.44;31.82;101980.41;5030544;28;20040;-67
2022/06/15 10:08:10;;;;;;;7.75;2.60;;;;;;;28.59;30.05;101988.00;5029135;28;20037;-68
2022/06/15 10:10:45;;;;;;;;;;;;;;;28.99;29.52;101974.78;5032367;28;20029;-68
2022/06/15 10:13:19;;;;;;;6.70;2.60;;;;;;;29.09;30.80;101980.97;5032093;28;19909;-67
2022/06/15 10:16:20;;;;;;;7.60;3.00;;;;;;;28.48;30.66;101982.81;5031553;28;20036;-67
2022/06/15 10:18:55;;;;;;;9.25;2.67;;;;;;;28.10;31.42;101964.81;5029507;28;20064;-67
2022/06/15 10:21:29;;;;;;;9.63;2.70;;;;;;;28.79;31.60;101972.31;5031167;28;20022;-68
2022/06/15 10:24:06;;;;;;;7.88;2.70;;;;;;;28.69;29.30;101966.97;5031743;28;20101;-67
2022/06/15 10:26:50;;;;;;;8.25;2.80;;;;;;;28.22;30.96;101980.91;5032219;28;20033;-68
2022/06/15 10:29:15;;;;;;;12.10;3.30;;;;;;;28.87;30.27;101968.78;5032357;28;20029;-67
2022/06/15 10:31:55;;;;;;;8.80;3.20;;;;;;;28.76;30.67;101973.50;5029314;28;20032;-68
2022/06/15 10:34:32;;;;;;;7.05;3.05;;;;;;;28.40;30.25;101980.88;5029561;28;21129;-68
2022/06/15 10:37:04;;;;;;;12.10;3.13;;;;;;;28.46;31.82;101977.53;5030458;28;20036;-67
2022/06/15 10:39:33;;;;;;;6.53;3.00;;;;;;;28.80;31.38;101978.63;5030948;28;20021;-67
2022/06/15 10:42:07;;;;;;;6.25;2.80;;;;;;;28.57;30.79;101974.53;5031466;28;20021;-68
2022/06/15 10:44:35;;;;;;;7.40;2.78;;;;;;;27.91;31.66;101971.25;5025641;28;20103;-68
2022/06/15 10:47:20;;;;;;;9.45;3.13;;;;;;;28.27;32.85;101968.56;5031799;28;20470;-67
2022/06/15 10:49:52;;;;;;;6.05;3.30;;;;;;;27.84;32.42;101982.94;5031085;28;20409;-67
2022/06/15 10:52:26;;;;;;;5.25;2.72;;;;;;;27.50;33.55;101978.16;5030275;28;20036;-67
2022/06/15 11:02:07;;;;;;;7.50;2.78;;;;;;;28.91;31.42;101979.22;5021902;28;20064;-68
2022/06/15 11:04:37;;;;;;;9.10;3.00;;;;;;;28.78;32.54;101973.34;5029395;28;20507;-68
2022/06/15 11:07:14;;;;;;;11.30;2.92;;;;;;;29.12;31.78;101968.88;5037073;28;20045;-68
2022/06/15 11:09:59;;;;;;;5.28;2.65;;;;;;;29.63;30.86;101969.78;5036690;28;20033;-68
2022/06/15 11:12:39;;;;;;;6.95;2.85;;;;;;;29.01;30.31;101968.16;5030076;28;20029;-67
2022/06/15 11:15:14;;;;;;;;;;;;;;;29.00;32.72;101963.72;5031131;28;20033;-67
2022/06/15 11:18:03;;;;;;;6.72;2.78;;;;;;;29.19;30.34;101961.75;5038768;28;19955;-68
2022/06/15 11:20:37;;;;;;;6.45;2.70;;;;;;;29.55;30.84;101956.09;5029974;28;20025;-68
2022/06/15 11:23:12;;;;;;;5.72;2.45;;;;;;;29.63;30.67;101955.25;5030074;28;20087;-68
2022/06/15 11:25:50;;;;;;;6.68;2.42;;;;;;;30.01;29.21;101951.03;5027218;28;20488;-69
2022/06/15 11:28:24;;;;;;;6.97;2.80;;;;;;;29.11;30.88;101943.50;5027726;28;20033;-69
2022/06/15 11:31:15;;;;;;;6.90;2.78;;;;;;;28.68;32.12;101948.06;5033957;28;20027;-69
2022/06/15 11:34:12;;;;;;;;;;;;;;;28.60;31.74;101951.56;5030527;28;20064;-67
2022/06/15 11:37:05;;;;;;;4.15;2.30;;;;;;;29.43;30.16;101944.66;5018580;28;19921;-67
2022/06/15 11:39:45;;;;;;;4.95;2.40;;;;;;;29.14;30.49;101954.06;5034484;28;20022;-68
2022/06/15 11:42:14;;;;;;;6.25;2.58;;;;;;;29.40;31.01;101943.09;5033265;28;20064;-68
2022/06/15 11:44:43;;;;;;;6.82;2.50;;;;;;;29.56;29.46;101942.28;5033942;28;20050;-68
2022/06/15 11:47:08;;;;;;;7.35;2.60;;;;;;;29.77;32.23;101940.94;5032740;28;20449;-68
2022/06/15 11:50:00;;;;;;;5.83;2.20;;;;;;;29.85;28.99;101935.50;5034103;28;20480;-68
2022/06/15 11:52:53;;;;;;;7.93;2.65;;;;;;;29.39;30.27;101938.66;5034158;28;20852;-68